PGT6CU LTFJ-LTAC
Flight info
| Callsign | PGT6CU |
|---|---|
| Flight time | 0h 40m |
| Altitude | 29000 |
| Route | VICEN UT380 ASMAP UL333 LATGA |
| Aircraft | B738/M-SDE2E3FGHIRWXY/LB1 |
Departure
| Time | 2026-05-06 17:55 |
|---|---|
| Airport | Istanbul Sabiha Gökçen International Airport (LTFJ) |
Arrival
| Time | 2026-05-06 18:36 |
|---|---|
| Airport | Esenboğa International Airport (LTAC) |
| Time | Latitude | Longitude | Altitude | Speed | Heading |
|---|---|---|---|---|---|
| 2026-05-06 17:20 | 40.90575 | 29.31483 | 319 ft | 0 kts | 334° |
| 2026-05-06 17:41 | 40.90566 | 29.31489 | 318 ft | 4 kts | 333° |
| 2026-05-06 17:41 | 40.90543 | 29.31506 | 320 ft | 4 kts | 328° |
| 2026-05-06 17:41 | 40.90520 | 29.31526 | 318 ft | 4 kts | 320° |
| 2026-05-06 17:41 | 40.90502 | 29.31551 | 318 ft | 4 kts | 297° |
| 2026-05-06 17:42 | 40.90498 | 29.31576 | 318 ft | 1 kts | 249° |
| 2026-05-06 17:45 | 40.90497 | 29.31575 | 318 ft | 1 kts | 249° |
| 2026-05-06 17:46 | 40.90492 | 29.31556 | 317 ft | 4 kts | 249° |
| 2026-05-06 17:46 | 40.90474 | 29.31501 | 320 ft | 9 kts | 246° |
| 2026-05-06 17:46 | 40.90428 | 29.31436 | 320 ft | 12 kts | 178° |
| 2026-05-06 17:46 | 40.90354 | 29.31475 | 320 ft | 11 kts | 155° |
| 2026-05-06 17:47 | 40.90282 | 29.31486 | 320 ft | 11 kts | 213° |
| 2026-05-06 17:47 | 40.90242 | 29.31400 | 320 ft | 11 kts | 245° |
| 2026-05-06 17:47 | 40.90210 | 29.31311 | 320 ft | 11 kts | 244° |
| 2026-05-06 17:47 | 40.90178 | 29.31226 | 319 ft | 10 kts | 243° |
| 2026-05-06 17:48 | 40.90143 | 29.31132 | 320 ft | 13 kts | 244° |
| 2026-05-06 17:48 | 40.90104 | 29.31023 | 319 ft | 13 kts | 241° |
| 2026-05-06 17:48 | 40.90039 | 29.30985 | 320 ft | 6 kts | 162° |
| 2026-05-06 17:48 | 40.90002 | 29.31007 | 320 ft | 6 kts | 155° |
| 2026-05-06 17:49 | 40.89963 | 29.31031 | 320 ft | 7 kts | 153° |
| 2026-05-06 17:49 | 40.89890 | 29.31058 | 318 ft | 15 kts | 165° |
| 2026-05-06 17:49 | 40.89788 | 29.31123 | 315 ft | 19 kts | 153° |
| 2026-05-06 17:49 | 40.89683 | 29.31217 | 315 ft | 19 kts | 155° |
| 2026-05-06 17:50 | 40.89559 | 29.31296 | 312 ft | 20 kts | 154° |
| 2026-05-06 17:50 | 40.89434 | 29.31376 | 306 ft | 20 kts | 154° |
| 2026-05-06 17:50 | 40.89315 | 29.31452 | 306 ft | 16 kts | 154° |
| 2026-05-06 17:50 | 40.89231 | 29.31418 | 307 ft | 14 kts | 241° |
| 2026-05-06 17:51 | 40.89188 | 29.31302 | 305 ft | 14 kts | 244° |
| 2026-05-06 17:51 | 40.89147 | 29.31191 | 305 ft | 13 kts | 244° |
| 2026-05-06 17:51 | 40.89107 | 29.31084 | 305 ft | 13 kts | 244° |
| 2026-05-06 17:51 | 40.89061 | 29.30957 | 298 ft | 17 kts | 244° |
| 2026-05-06 17:52 | 40.89002 | 29.30794 | 294 ft | 22 kts | 244° |
| 2026-05-06 17:52 | 40.88931 | 29.30603 | 285 ft | 24 kts | 244° |
| 2026-05-06 17:52 | 40.88858 | 29.30405 | 283 ft | 24 kts | 244° |
| 2026-05-06 17:52 | 40.88794 | 29.30243 | 281 ft | 15 kts | 222° |
| 2026-05-06 17:53 | 40.88709 | 29.30256 | 279 ft | 11 kts | 154° |
| 2026-05-06 17:53 | 40.88662 | 29.30285 | 279 ft | 1 kts | 155° |
| 2026-05-06 17:53 | 40.88655 | 29.30289 | 279 ft | 2 kts | 155° |
| 2026-05-06 17:53 | 40.88632 | 29.30304 | 279 ft | 6 kts | 154° |
| 2026-05-06 17:54 | 40.88574 | 29.30341 | 279 ft | 12 kts | 154° |
| 2026-05-06 17:54 | 40.88547 | 29.30426 | 285 ft | 7 kts | 65° |
| 2026-05-06 17:54 | 40.88554 | 29.30444 | 284 ft | 4 kts | 63° |
| 2026-05-06 17:54 | 40.88641 | 29.30681 | 285 ft | 63 kts | 64° |
| 2026-05-06 17:55 | 40.88931 | 29.31471 | 308 ft | 125 kts | 64° |
| 2026-05-06 17:55 | 40.89383 | 29.32694 | 461 ft | 164 kts | 62° |
| 2026-05-06 17:55 | 40.89901 | 29.34092 | 1089 ft | 176 kts | 63° |
| 2026-05-06 17:55 | 40.90230 | 29.35744 | 1594 ft | 197 kts | 94° |
| 2026-05-06 17:56 | 40.89769 | 29.37365 | 2398 ft | 197 kts | 122° |
| 2026-05-06 17:56 | 40.89127 | 29.39086 | 2687 ft | 222 kts | 106° |
| 2026-05-06 17:56 | 40.88990 | 29.41273 | 2614 ft | 260 kts | 89° |
| 2026-05-06 17:56 | 40.88989 | 29.43737 | 3164 ft | 270 kts | 97° |
| 2026-05-06 17:57 | 40.88378 | 29.46041 | 4032 ft | 271 kts | 124° |
| 2026-05-06 17:57 | 40.86957 | 29.47724 | 4639 ft | 278 kts | 155° |
| 2026-05-06 17:57 | 40.85142 | 29.48631 | 5399 ft | 282 kts | 162° |
| 2026-05-06 17:57 | 40.83258 | 29.49551 | 6039 ft | 290 kts | 158° |
| 2026-05-06 17:58 | 40.81412 | 29.50594 | 6727 ft | 296 kts | 156° |
| 2026-05-06 17:58 | 40.79537 | 29.51735 | 7461 ft | 299 kts | 154° |
| 2026-05-06 17:58 | 40.77656 | 29.53001 | 8071 ft | 306 kts | 145° |
| 2026-05-06 17:58 | 40.76279 | 29.55024 | 9004 ft | 297 kts | 114° |
| 2026-05-06 17:59 | 40.75725 | 29.57626 | 9715 ft | 296 kts | 96° |
| 2026-05-06 17:59 | 40.75418 | 29.60358 | 10336 ft | 303 kts | 96° |
| 2026-05-06 17:59 | 40.75073 | 29.63185 | 10619 ft | 322 kts | 97° |
| 2026-05-06 17:59 | 40.74800 | 29.65162 | 10727 ft | 337 kts | 98° |
| 2026-05-06 18:00 | 40.74190 | 29.69346 | 11230 ft | 354 kts | 98° |
| 2026-05-06 18:00 | 40.73875 | 29.71458 | 11643 ft | 357 kts | 98° |
| 2026-05-06 18:00 | 40.73235 | 29.75748 | 12557 ft | 361 kts | 98° |
| 2026-05-06 18:00 | 40.72907 | 29.77955 | 13033 ft | 363 kts | 98° |
| 2026-05-06 18:01 | 40.72418 | 29.81250 | 13742 ft | 367 kts | 98° |
| 2026-05-06 18:01 | 40.71935 | 29.84508 | 14834 ft | 354 kts | 99° |
| 2026-05-06 18:01 | 40.71475 | 29.87594 | 15987 ft | 342 kts | 98° |
| 2026-05-06 18:01 | 40.71020 | 29.90668 | 16884 ft | 341 kts | 98° |
| 2026-05-06 18:02 | 40.70563 | 29.93761 | 17537 ft | 346 kts | 98° |
| 2026-05-06 18:02 | 40.70100 | 29.96902 | 18186 ft | 350 kts | 98° |
| 2026-05-06 18:02 | 40.69630 | 30.00076 | 18790 ft | 354 kts | 98° |
| 2026-05-06 18:02 | 40.69162 | 30.03231 | 19363 ft | 357 kts | 98° |
| 2026-05-06 18:03 | 40.68676 | 30.06508 | 19946 ft | 361 kts | 98° |
| 2026-05-06 18:03 | 40.68195 | 30.09734 | 20521 ft | 365 kts | 98° |
| 2026-05-06 18:03 | 40.67702 | 30.13035 | 21116 ft | 368 kts | 99° |
| 2026-05-06 18:03 | 40.67203 | 30.16367 | 21720 ft | 371 kts | 99° |
| 2026-05-06 18:04 | 40.66698 | 30.19733 | 22264 ft | 375 kts | 99° |
| 2026-05-06 18:04 | 40.66189 | 30.23115 | 22798 ft | 379 kts | 99° |
| 2026-05-06 18:04 | 40.65678 | 30.26503 | 23324 ft | 383 kts | 98° |
| 2026-05-06 18:04 | 40.65153 | 30.29977 | 23820 ft | 387 kts | 98° |
| 2026-05-06 18:05 | 40.64624 | 30.33476 | 24285 ft | 389 kts | 98° |
| 2026-05-06 18:05 | 40.64097 | 30.36947 | 24739 ft | 392 kts | 98° |
| 2026-05-06 18:05 | 40.63561 | 30.40475 | 25209 ft | 395 kts | 99° |
| 2026-05-06 18:05 | 40.63019 | 30.44030 | 25683 ft | 397 kts | 99° |
| 2026-05-06 18:06 | 40.62468 | 30.47638 | 26126 ft | 400 kts | 98° |
| 2026-05-06 18:06 | 40.61924 | 30.51199 | 26528 ft | 403 kts | 98° |
| 2026-05-06 18:06 | 40.61367 | 30.54833 | 26946 ft | 406 kts | 98° |
| 2026-05-06 18:06 | 40.60804 | 30.58494 | 27368 ft | 409 kts | 98° |
| 2026-05-06 18:07 | 40.60236 | 30.62182 | 27792 ft | 412 kts | 98° |
| 2026-05-06 18:07 | 40.59663 | 30.65895 | 28211 ft | 415 kts | 98° |
| 2026-05-06 18:07 | 40.59084 | 30.69633 | 28645 ft | 417 kts | 98° |
| 2026-05-06 18:07 | 40.58511 | 30.73334 | 29028 ft | 419 kts | 98° |
| 2026-05-06 18:08 | 40.57320 | 30.81002 | 29112 ft | 436 kts | 98° |
| 2026-05-06 18:08 | 40.56083 | 30.88911 | 29098 ft | 441 kts | 99° |
| 2026-05-06 18:09 | 40.54842 | 30.96796 | 29088 ft | 439 kts | 99° |
| 2026-05-06 18:09 | 40.53609 | 31.04599 | 29079 ft | 427 kts | 99° |
| 2026-05-06 18:10 | 40.53019 | 31.08310 | 29088 ft | 415 kts | 99° |
| 2026-05-06 18:10 | 40.52427 | 31.12036 | 28670 ft | 418 kts | 99° |
| 2026-05-06 18:10 | 40.51834 | 31.15777 | 28276 ft | 414 kts | 99° |
| 2026-05-06 18:10 | 40.51248 | 31.19461 | 27844 ft | 410 kts | 99° |
| 2026-05-06 18:11 | 40.50664 | 31.23118 | 27448 ft | 407 kts | 99° |
| 2026-05-06 18:11 | 40.50082 | 31.26750 | 27061 ft | 403 kts | 99° |
| 2026-05-06 18:11 | 40.49512 | 31.30310 | 26676 ft | 400 kts | 99° |
| 2026-05-06 18:11 | 40.48938 | 31.33885 | 26292 ft | 398 kts | 99° |
| 2026-05-06 18:12 | 40.48367 | 31.37433 | 25902 ft | 395 kts | 99° |
| 2026-05-06 18:12 | 40.47802 | 31.40938 | 25710 ft | 387 kts | 99° |
| 2026-05-06 18:12 | 40.47329 | 31.44344 | 25511 ft | 379 kts | 95° |
| 2026-05-06 18:12 | 40.47016 | 31.47766 | 25269 ft | 375 kts | 92° |
| 2026-05-06 18:13 | 40.46762 | 31.51211 | 25041 ft | 380 kts | 92° |
| 2026-05-06 18:13 | 40.46519 | 31.54681 | 24802 ft | 384 kts | 92° |
| 2026-05-06 18:13 | 40.46264 | 31.58209 | 24576 ft | 386 kts | 92° |
| 2026-05-06 18:13 | 40.46001 | 31.61664 | 24352 ft | 384 kts | 93° |
| 2026-05-06 18:14 | 40.45726 | 31.65154 | 24103 ft | 383 kts | 93° |
| 2026-05-06 18:14 | 40.45445 | 31.68604 | 23876 ft | 379 kts | 93° |
| 2026-05-06 18:14 | 40.45163 | 31.72027 | 23639 ft | 376 kts | 93° |
| 2026-05-06 18:14 | 40.44878 | 31.75448 | 23363 ft | 376 kts | 93° |
| 2026-05-06 18:15 | 40.44590 | 31.78874 | 23095 ft | 375 kts | 94° |
| 2026-05-06 18:15 | 40.44307 | 31.82231 | 22819 ft | 373 kts | 94° |
| 2026-05-06 18:15 | 40.44020 | 31.85628 | 22561 ft | 372 kts | 94° |
| 2026-05-06 18:15 | 40.43734 | 31.88993 | 22291 ft | 370 kts | 94° |
| 2026-05-06 18:16 | 40.43447 | 31.92358 | 22035 ft | 369 kts | 94° |
| 2026-05-06 18:16 | 40.43160 | 31.95710 | 21781 ft | 368 kts | 94° |
| 2026-05-06 18:16 | 40.42872 | 31.99064 | 21531 ft | 367 kts | 94° |
| 2026-05-06 18:16 | 40.42586 | 32.02390 | 21258 ft | 366 kts | 94° |
| 2026-05-06 18:17 | 40.42303 | 32.05663 | 21014 ft | 364 kts | 94° |
| 2026-05-06 18:17 | 40.42015 | 32.08967 | 20762 ft | 363 kts | 94° |
| 2026-05-06 18:17 | 40.41729 | 32.12259 | 20511 ft | 362 kts | 94° |
| 2026-05-06 18:17 | 40.41443 | 32.15540 | 20271 ft | 360 kts | 94° |
| 2026-05-06 18:18 | 40.41161 | 32.18769 | 20022 ft | 358 kts | 94° |
| 2026-05-06 18:18 | 40.40875 | 32.22026 | 19776 ft | 357 kts | 94° |
| 2026-05-06 18:18 | 40.40594 | 32.25207 | 19526 ft | 353 kts | 94° |
| 2026-05-06 18:18 | 40.40311 | 32.28398 | 19205 ft | 350 kts | 95° |
| 2026-05-06 18:19 | 40.40029 | 32.31574 | 18864 ft | 348 kts | 95° |
| 2026-05-06 18:19 | 40.39750 | 32.34711 | 18525 ft | 346 kts | 95° |
| 2026-05-06 18:19 | 40.39471 | 32.37842 | 18145 ft | 344 kts | 95° |
| 2026-05-06 18:19 | 40.39192 | 32.40962 | 17765 ft | 342 kts | 95° |
| 2026-05-06 18:20 | 40.38913 | 32.44062 | 17408 ft | 340 kts | 95° |
| 2026-05-06 18:20 | 40.38641 | 32.47081 | 17065 ft | 337 kts | 95° |
| 2026-05-06 18:20 | 40.38366 | 32.50133 | 16722 ft | 335 kts | 95° |
| 2026-05-06 18:20 | 40.38089 | 32.53178 | 16384 ft | 333 kts | 95° |
| 2026-05-06 18:21 | 40.37816 | 32.56182 | 16043 ft | 330 kts | 95° |
| 2026-05-06 18:21 | 40.37548 | 32.59130 | 15711 ft | 328 kts | 96° |
| 2026-05-06 18:21 | 40.37277 | 32.62094 | 15390 ft | 326 kts | 96° |
| 2026-05-06 18:21 | 40.37007 | 32.65048 | 15061 ft | 324 kts | 96° |
| 2026-05-06 18:22 | 40.36738 | 32.67970 | 14734 ft | 323 kts | 96° |
| 2026-05-06 18:22 | 40.36469 | 32.70889 | 14410 ft | 321 kts | 96° |
| 2026-05-06 18:22 | 40.36200 | 32.73794 | 14082 ft | 320 kts | 96° |
| 2026-05-06 18:22 | 40.35932 | 32.76695 | 13730 ft | 318 kts | 96° |
| 2026-05-06 18:23 | 40.35668 | 32.79535 | 13379 ft | 317 kts | 96° |
| 2026-05-06 18:23 | 40.35401 | 32.82398 | 13036 ft | 315 kts | 97° |
| 2026-05-06 18:23 | 40.35134 | 32.85257 | 12700 ft | 313 kts | 97° |
| 2026-05-06 18:23 | 40.34869 | 32.88095 | 12309 ft | 313 kts | 97° |
| 2026-05-06 18:24 | 40.34603 | 32.90922 | 11960 ft | 311 kts | 97° |
| 2026-05-06 18:24 | 40.34342 | 32.93699 | 11627 ft | 310 kts | 97° |
| 2026-05-06 18:24 | 40.34390 | 32.96509 | 11257 ft | 310 kts | 75° |
| 2026-05-06 18:24 | 40.35345 | 32.99011 | 11014 ft | 305 kts | 52° |
| 2026-05-06 18:25 | 40.36887 | 33.00891 | 10729 ft | 302 kts | 36° |
| 2026-05-06 18:25 | 40.38600 | 33.02486 | 10415 ft | 301 kts | 36° |
| 2026-05-06 18:25 | 40.40270 | 33.04037 | 10277 ft | 293 kts | 36° |
| 2026-05-06 18:25 | 40.41898 | 33.05569 | 10127 ft | 281 kts | 36° |
| 2026-05-06 18:26 | 40.43444 | 33.07035 | 9996 ft | 267 kts | 37° |
| 2026-05-06 18:26 | 40.44930 | 33.08457 | 9742 ft | 262 kts | 37° |
| 2026-05-06 18:26 | 40.46411 | 33.09877 | 9511 ft | 266 kts | 36° |
| 2026-05-06 18:26 | 40.47921 | 33.11328 | 9238 ft | 272 kts | 36° |
| 2026-05-06 18:27 | 40.49367 | 33.12912 | 8926 ft | 277 kts | 51° |
| 2026-05-06 18:27 | 40.50212 | 33.15145 | 8684 ft | 272 kts | 80° |
| 2026-05-06 18:27 | 40.50141 | 33.17536 | 8631 ft | 256 kts | 109° |
| 2026-05-06 18:27 | 40.49237 | 33.19433 | 8632 ft | 238 kts | 140° |
| 2026-05-06 18:28 | 40.47820 | 33.20576 | 8550 ft | 240 kts | 154° |
| 2026-05-06 18:28 | 40.46350 | 33.21505 | 8384 ft | 233 kts | 156° |
| 2026-05-06 18:28 | 40.44913 | 33.22396 | 8218 ft | 223 kts | 156° |
| 2026-05-06 18:28 | 40.43437 | 33.22872 | 8057 ft | 219 kts | 186° |
| 2026-05-06 18:29 | 40.41928 | 33.22478 | 8080 ft | 226 kts | 195° |
| 2026-05-06 18:29 | 40.40406 | 33.21943 | 8010 ft | 224 kts | 196° |
| 2026-05-06 18:29 | 40.38920 | 33.21412 | 7849 ft | 222 kts | 196° |
| 2026-05-06 18:29 | 40.37434 | 33.20878 | 7622 ft | 217 kts | 196° |
| 2026-05-06 18:30 | 40.36006 | 33.20364 | 7458 ft | 212 kts | 196° |
| 2026-05-06 18:30 | 40.34601 | 33.19860 | 7371 ft | 207 kts | 196° |
| 2026-05-06 18:30 | 40.33225 | 33.19291 | 7285 ft | 207 kts | 208° |
| 2026-05-06 18:30 | 40.32070 | 33.18141 | 7121 ft | 211 kts | 221° |
| 2026-05-06 18:31 | 40.30893 | 33.16959 | 6940 ft | 214 kts | 216° |
| 2026-05-06 18:31 | 40.29692 | 33.15836 | 6725 ft | 207 kts | 216° |
| 2026-05-06 18:31 | 40.28564 | 33.14769 | 6643 ft | 192 kts | 216° |
| 2026-05-06 18:31 | 40.27484 | 33.13738 | 6437 ft | 194 kts | 217° |
| 2026-05-06 18:32 | 40.26406 | 33.12705 | 6191 ft | 192 kts | 217° |
| 2026-05-06 18:32 | 40.25331 | 33.11674 | 5924 ft | 190 kts | 217° |
| 2026-05-06 18:32 | 40.24272 | 33.10659 | 5666 ft | 187 kts | 217° |
| 2026-05-06 18:32 | 40.23234 | 33.09664 | 5433 ft | 183 kts | 217° |
| 2026-05-06 18:33 | 40.22227 | 33.08699 | 5213 ft | 172 kts | 217° |
| 2026-05-06 18:33 | 40.21297 | 33.07808 | 4970 ft | 161 kts | 217° |
| 2026-05-06 18:33 | 40.20410 | 33.06957 | 4746 ft | 160 kts | 217° |
| 2026-05-06 18:33 | 40.19513 | 33.06097 | 4514 ft | 160 kts | 217° |
| 2026-05-06 18:34 | 40.18610 | 33.05230 | 4281 ft | 161 kts | 217° |
| 2026-05-06 18:34 | 40.17709 | 33.04366 | 4050 ft | 160 kts | 218° |
| 2026-05-06 18:34 | 40.16814 | 33.03507 | 3832 ft | 160 kts | 217° |
| 2026-05-06 18:34 | 40.15911 | 33.02640 | 3622 ft | 161 kts | 217° |
| 2026-05-06 18:35 | 40.15023 | 33.01775 | 3401 ft | 157 kts | 217° |
| 2026-05-06 18:35 | 40.14146 | 33.00932 | 3190 ft | 156 kts | 216° |
| 2026-05-06 18:35 | 40.13306 | 33.00131 | 3127 ft | 135 kts | 215° |
| 2026-05-06 18:35 | 40.12667 | 32.99520 | 3121 ft | 92 kts | 216° |
| 2026-05-06 18:36 | 40.12273 | 32.99144 | 3117 ft | 53 kts | 216° |
| 2026-05-06 18:36 | 40.12056 | 32.98937 | 3114 ft | 28 kts | 216° |
| 2026-05-06 18:36 | 40.11929 | 32.98844 | 3113 ft | 15 kts | 173° |
| 2026-05-06 18:36 | 40.11875 | 32.98914 | 3113 ft | 9 kts | 125° |
| 2026-05-06 18:37 | 40.11838 | 32.98980 | 3113 ft | 9 kts | 126° |
| 2026-05-06 18:37 | 40.11814 | 32.99023 | 3112 ft | 9 kts | 126° |
| 2026-05-06 18:37 | 40.11762 | 32.99100 | 3112 ft | 8 kts | 148° |
| 2026-05-06 18:37 | 40.11707 | 32.99118 | 3112 ft | 8 kts | 186° |
| 2026-05-06 18:38 | 40.11662 | 32.99077 | 3112 ft | 8 kts | 238° |
| 2026-05-06 18:38 | 40.11631 | 32.99019 | 3112 ft | 8 kts | 232° |
| 2026-05-06 18:38 | 40.11597 | 32.98965 | 3112 ft | 7 kts | 228° |
| 2026-05-06 18:38 | 40.11561 | 32.98916 | 3112 ft | 8 kts | 224° |
| 2026-05-06 18:39 | 40.11515 | 32.98863 | 3112 ft | 10 kts | 220° |
| 2026-05-06 18:39 | 40.11458 | 32.98827 | 3112 ft | 7 kts | 164° |
| 2026-05-06 18:39 | 40.11434 | 32.98857 | 3112 ft | 4 kts | 127° |
| 2026-05-06 18:40 | 40.11427 | 32.98870 | 3112 ft | 0 kts | 127° |